Crew | Aerofun Virtual



 METAR AND TAF INFORMATION
METAR FOR LEJR
ADDS - METARS form results

(0500 UTC 20 May 2019)
Data provider http://aviationweather.gov/metar/data/
 
METAR text: LEJR 200500Z 00000KT CAVOK 12/11 Q1012
Conditions at: LEJR (JEREZ (CIV/MIL) , ES) observed 0500 UTC 20 May 2019
Temperature: 12.0°C (54°F)
Dewpoint: 11.0°C (52°F) [RH = 94%]
Pressure (altimeter): 29.88 inches Hg (1012.0 mb)
Winds: calm
Visibility: 6 or more miles (10+ km)
Ceiling: ceiling and visibility are OK
Clouds: unknown
Weather: no significant weather observed at this time

METAR text: LEJR 200430Z 03002KT CAVOK 12/11 Q1012
Conditions at: LEJR (JEREZ (CIV/MIL) , ES) observed 0430 UTC 20 May 2019
Temperature: 12.0°C (54°F)
Dewpoint: 11.0°C (52°F) [RH = 94%]
Pressure (altimeter): 29.88 inches Hg (1012.0 mb)
Winds: from the NNE (30 degrees) at 2 MPH (2 knots; 1.0 m/s)
Visibility: 6 or more miles (10+ km)
Ceiling: ceiling and visibility are OK
Clouds: unknown
Weather: no significant weather observed at this time

Forecast for: LEJR (JEREZ (CIV/MIL) , ES)
Text: TAF LEJR 192300Z 2000/2024 VRB02KT 9999 FEW030 TX27/2015Z TN12/2006Z
Forecast period: 0000 to 1000 UTC 20 May 2019
Forecast type: FROM: standard forecast or significant change
Winds: variable direction winds at 2 MPH (2 knots; 1.0 m/s)
Visibility: 6 or more miles 10+ km)
Ceiling: at least 12,000 feet AGL
Clouds: few clouds at 3000 feet AGL
Weather: no significant weather forecast for this period
Text: BECMG 2010/2012 27011KT
Forecast period: 1000 to 2000 UTC 20 May 2019
Forecast type: BECOMING: Conditions expected to become as follows by 1200 UTC 20 May 2019
Winds: from the W (270 degrees) at 13 MPH (11 knots; 5.7 m/s)
Visibility: 6 or more miles 10+ km)
Ceiling: at least 12,000 feet AGL
Clouds: few clouds at 3000 feet AGL
Weather: no significant weather forecast for this period
Text: BECMG 2020/2022 18004KT
Forecast period: 2000 UTC 20 May 2019 to 0000 UTC 21 May 2019
Forecast type: BECOMING: Conditions expected to become as follows by 2200 UTC 20 May 2019
Winds: from the S (180 degrees) at 5 MPH (4 knots; 2.1 m/s)
Visibility: 6 or more miles 10+ km)
Ceiling: at least 12,000 feet AGL
Clouds: few clouds at 3000 feet AGL
Weather: no significant weather forecast for this period

 AIRPORT MAP

 RUNWAY INFORMATION
Runway 02 Runway length 7546 ft Runway width 148 ft
Runway elevation 68 ft Runway displaced threshold 0 ft Runway heading 21
Runway 20 Runway length 7546 ft Runway width 148 ft
Runway elevation 93 ft Runway displaced threshold 0 ft Runway heading 201

 AIRPORT FREQUENCIES
Type APP Name APP Frequency 128.5 MHZ
Type GND Name GND Frequency 121.6 MHZ
Type TWR Name TWR Frequency 118.55 MHZ

 AIRPORT NEAR NAVIGATION AIDS
Type NDB Name Jerez Frequency 433 KHZ
Type VOR-DME Name Jerez Frequency 113000 KHZ